createdAt,value
2023-01-08T00:02:20.982Z,12.10
2023-01-08T00:05:22.488Z,12.50
2023-01-08T00:08:26.268Z,10.00
2023-01-08T00:11:30.950Z,11.50
2023-01-08T00:14:32.631Z,12.60
2023-01-08T00:17:34.086Z,11.60
2023-01-08T00:20:35.684Z,10.50
2023-01-08T00:23:37.441Z,12.30
2023-01-08T00:26:40.240Z,10.90
2023-01-08T00:29:41.756Z,11.00
2023-01-08T00:32:43.548Z,10.60
2023-01-08T00:35:45.147Z,10.80
2023-01-08T00:38:47.037Z,10.90
2023-01-08T00:41:51.637Z,11.30
2023-01-08T00:44:53.142Z,10.70
2023-01-08T00:47:54.808Z,11.20
2023-01-08T00:51:03.691Z,11.10
2023-01-08T00:54:05.325Z,10.80
2023-01-08T00:57:06.825Z,11.10
2023-01-08T01:00:11.229Z,11.10
2023-01-08T01:03:16.298Z,10.70
2023-01-08T01:06:17.802Z,12.20
2023-01-08T01:09:19.308Z,10.80
2023-01-08T01:12:20.833Z,10.80
2023-01-08T01:15:24.702Z,10.90
2023-01-08T01:18:26.734Z,11.10
2023-01-08T01:21:30.565Z,13.10
2023-01-08T01:24:32.115Z,10.70
2023-01-08T01:27:33.687Z,11.20
2023-01-08T01:30:37.272Z,12.10
2023-01-08T01:33:39.038Z,10.90
2023-01-08T01:36:40.545Z,12.90
2023-01-08T01:39:46.598Z,10.90
2023-01-08T01:42:48.137Z,11.00
2023-01-08T01:45:52.651Z,10.60
2023-01-08T01:48:56.527Z,10.60
2023-01-08T01:52:02.255Z,11.10
2023-01-08T01:55:04.001Z,11.00
2023-01-08T01:58:15.895Z,10.80
2023-01-08T02:01:17.510Z,11.10
2023-01-08T02:04:19.102Z,10.70
2023-01-08T02:07:27.528Z,10.80
2023-01-08T02:10:35.729Z,10.60
2023-01-08T02:13:41.789Z,10.80
2023-01-08T02:16:50.357Z,10.80
2023-01-08T02:19:58.050Z,10.70
2023-01-08T02:23:10.737Z,10.90
2023-01-08T02:26:14.470Z,13.40
2023-01-08T02:29:17.812Z,10.80
2023-01-08T02:32:22.493Z,10.70
2023-01-08T02:35:24.375Z,10.90
2023-01-08T02:38:26.264Z,10.40
2023-01-08T02:41:32.876Z,10.40
2023-01-08T02:44:53.303Z,10.80
2023-01-08T02:47:58.935Z,10.50
2023-01-08T02:51:19.470Z,10.90
2023-01-08T02:54:23.471Z,10.50
2023-01-08T02:57:25.270Z,12.30
2023-01-08T03:00:27.227Z,10.30
2023-01-08T03:03:33.569Z,10.90
2023-01-08T03:06:35.053Z,11.90
2023-01-08T03:09:36.604Z,10.70
2023-01-08T03:13:01.342Z,10.50
2023-01-08T03:16:05.137Z,10.30
2023-01-08T03:19:32.729Z,10.30
2023-01-08T03:22:40.404Z,10.70
2023-01-08T03:25:43.279Z,11.80
2023-01-08T03:28:47.021Z,10.60
2023-01-08T03:31:48.935Z,10.80
2023-01-08T03:34:54.705Z,11.80
2023-01-08T03:38:05.327Z,10.50
2023-01-08T03:41:12.529Z,10.50
2023-01-08T03:44:14.176Z,10.70
2023-01-08T03:47:16.066Z,10.40
2023-01-08T03:50:21.540Z,10.40
2023-01-08T03:53:23.039Z,12.40
2023-01-08T03:56:26.801Z,10.50
2023-01-08T03:59:28.599Z,13.00
2023-01-08T04:02:30.203Z,10.50
2023-01-08T04:05:31.777Z,10.30
2023-01-08T04:08:33.236Z,10.60
2023-01-08T04:11:34.741Z,10.70
2023-01-08T04:14:36.270Z,10.20
2023-01-08T04:17:37.756Z,10.60
2023-01-08T04:20:41.723Z,11.60
2023-01-08T04:23:43.178Z,12.30
2023-01-08T04:26:44.800Z,10.60
2023-01-08T04:29:46.313Z,10.70
2023-01-08T04:32:47.782Z,10.60
2023-01-08T04:35:49.292Z,10.50
2023-01-08T04:38:53.193Z,10.80
2023-01-08T04:41:54.705Z,10.70
2023-01-08T04:44:56.207Z,10.60
2023-01-08T04:47:58.370Z,10.50
2023-01-08T04:51:00.311Z,11.90
2023-01-08T04:54:01.787Z,10.30
2023-01-08T04:57:03.248Z,10.70
2023-01-08T05:00:05.019Z,10.30
2023-01-08T05:03:06.593Z,10.50
2023-01-08T05:06:08.185Z,10.60
2023-01-08T05:09:09.747Z,11.00
2023-01-08T05:12:11.197Z,11.70
2023-01-08T05:15:12.991Z,11.50
2023-01-08T05:18:14.532Z,10.10
2023-01-08T05:21:16.680Z,10.30
2023-01-08T05:24:18.160Z,10.70
2023-01-08T05:27:20.698Z,11.40
2023-01-08T05:30:22.323Z,10.50
2023-01-08T05:33:24.202Z,10.50
2023-01-08T05:36:30.019Z,10.50
2023-01-08T05:39:31.487Z,10.50
2023-01-08T05:42:36.757Z,12.50
2023-01-08T05:45:38.290Z,10.40
2023-01-08T05:48:39.833Z,10.50
2023-01-08T05:51:42.565Z,10.40
2023-01-08T05:54:46.328Z,10.50
2023-01-08T05:57:47.815Z,10.30
2023-01-08T06:00:49.283Z,10.30
2023-01-08T06:03:50.994Z,10.20
2023-01-08T06:06:52.464Z,10.30
2023-01-08T06:09:54.019Z,10.40
2023-01-08T06:12:55.584Z,10.50
2023-01-08T06:16:00.678Z,10.20
2023-01-08T06:19:02.217Z,10.30
2023-01-08T06:22:03.726Z,10.10
2023-01-08T06:25:05.474Z,10.50
2023-01-08T06:28:08.303Z,10.50
2023-01-08T06:31:09.865Z,10.30
2023-01-08T06:34:11.489Z,10.70
2023-01-08T06:37:13.065Z,10.10
2023-01-08T06:40:14.598Z,12.50
2023-01-08T06:43:16.083Z,10.50
2023-01-08T06:46:17.616Z,10.80
2023-01-08T06:49:19.749Z,10.30
2023-01-08T06:52:21.330Z,10.60
2023-01-08T06:55:23.647Z,10.20
2023-01-08T06:58:26.370Z,10.40
2023-01-08T07:01:27.990Z,9.80
2023-01-08T07:04:29.559Z,9.90
2023-01-08T07:07:31.028Z,10.10
2023-01-08T07:10:34.199Z,9.70
2023-01-08T07:13:35.760Z,9.60
2023-01-08T07:16:37.293Z,9.60
2023-01-08T07:20:01.440Z,9.60
2023-01-08T07:23:10.155Z,9.30
2023-01-08T07:26:37.962Z,8.60
2023-01-08T07:29:55.464Z,12.20
2023-01-08T07:33:09.075Z,10.70
2023-01-08T07:36:19.271Z,9.80
2023-01-08T07:39:38.914Z,10.70
2023-01-08T07:45:51.727Z,9.10
2023-01-08T07:48:53.186Z,11.10
2023-01-08T07:51:54.661Z,9.20
2023-01-08T07:54:56.108Z,8.80
2023-01-08T07:57:57.676Z,9.20
2023-01-08T08:00:59.533Z,8.90
2023-01-08T08:04:01.102Z,9.00
2023-01-08T08:07:02.619Z,11.00
2023-01-08T08:10:04.836Z,9.00
2023-01-08T08:13:06.312Z,9.10
2023-01-08T08:16:08.247Z,9.00
2023-01-08T08:19:11.064Z,9.00
2023-01-08T08:22:12.949Z,8.70
2023-01-08T08:25:15.181Z,9.00
2023-01-08T08:28:16.678Z,8.70
2023-01-08T08:31:18.359Z,8.80
2023-01-08T08:34:22.405Z,8.50
2023-01-08T08:37:23.885Z,8.70
2023-01-08T08:40:25.759Z,8.60
2023-01-08T08:43:27.256Z,8.80
2023-01-08T08:46:29.176Z,8.60
2023-01-08T08:49:30.667Z,8.40
2023-01-08T08:52:32.717Z,9.50
2023-01-08T08:55:34.550Z,8.10
2023-01-08T08:58:36.078Z,8.30
2023-01-08T09:01:37.637Z,8.10
2023-01-08T09:04:39.134Z,8.60
2023-01-08T09:07:40.659Z,8.30
2023-01-08T09:10:42.425Z,8.40
2023-01-08T09:13:44.032Z,8.60
2023-01-08T09:16:45.578Z,8.80
2023-01-08T09:19:47.290Z,8.70
2023-01-08T09:22:48.835Z,8.50
2023-01-08T09:25:50.297Z,8.90
2023-01-08T09:28:51.781Z,10.10
2023-01-08T09:31:53.446Z,8.90
2023-01-08T09:34:54.975Z,9.10
2023-01-08T09:37:56.492Z,9.00
2023-01-08T09:41:03.575Z,9.00
2023-01-08T09:44:06.237Z,9.10
2023-01-08T09:47:17.675Z,9.00
2023-01-08T09:50:27.738Z,8.90
2023-01-08T09:53:29.455Z,9.00
2023-01-08T09:56:32.896Z,9.20
2023-01-08T09:59:34.362Z,9.20
2023-01-08T10:02:39.582Z,9.30
2023-01-08T10:05:41.778Z,9.10
2023-01-08T10:08:43.356Z,9.60
2023-01-08T10:11:46.211Z,9.40
2023-01-08T10:14:49.831Z,9.40
2023-01-08T10:17:59.151Z,9.80
2023-01-08T10:21:00.659Z,9.80
2023-01-08T10:24:02.119Z,10.10
2023-01-08T10:27:07.506Z,9.90
2023-01-08T10:30:14.707Z,10.10
2023-01-08T10:33:19.944Z,10.00
2023-01-08T10:36:23.291Z,10.10
2023-01-08T10:39:29.189Z,10.20
2023-01-08T10:42:34.110Z,10.70
2023-01-08T10:45:35.651Z,10.50
2023-01-08T10:48:39.027Z,10.50
2023-01-08T10:51:48.101Z,11.40
2023-01-08T10:54:49.568Z,10.70
2023-01-08T10:58:01.287Z,10.80
2023-01-08T11:01:09.897Z,12.70
2023-01-08T11:04:20.495Z,10.70
2023-01-08T11:07:23.149Z,10.60
2023-01-08T11:10:25.610Z,10.70
2023-01-08T11:13:28.064Z,10.60
2023-01-08T11:16:31.142Z,10.60
2023-01-08T11:19:33.444Z,10.50
2023-01-08T11:22:34.911Z,12.30
2023-01-08T11:25:36.667Z,10.60
2023-01-08T11:28:51.166Z,11.60
2023-01-08T11:31:55.825Z,10.80
2023-01-08T11:35:00.878Z,11.20
2023-01-08T11:38:02.804Z,10.80
2023-01-08T11:41:17.399Z,11.10
2023-01-08T11:44:29.826Z,11.10
2023-01-08T11:47:41.937Z,10.90
2023-01-08T11:50:58.529Z,11.00
2023-01-08T11:54:19.160Z,11.20
2023-01-08T11:57:20.611Z,11.20
2023-01-08T12:00:25.156Z,11.30
2023-01-08T12:03:33.795Z,11.00
2023-01-08T12:06:40.129Z,11.40
2023-01-08T12:09:46.258Z,11.10
2023-01-08T12:12:58.512Z,11.40
2023-01-08T12:16:18.766Z,11.50
2023-01-08T12:19:23.128Z,11.30
2023-01-08T12:22:32.160Z,11.30
2023-01-08T12:25:43.546Z,11.30
2023-01-08T12:29:03.693Z,10.60
2023-01-08T12:32:16.867Z,9.70
2023-01-08T12:35:20.984Z,9.00
2023-01-08T12:38:25.578Z,9.10
2023-01-08T12:41:27.344Z,8.90
2023-01-08T12:44:29.811Z,8.90
2023-01-08T12:47:33.886Z,9.20
2023-01-08T12:50:59.523Z,8.80
2023-01-08T12:54:07.128Z,9.00
2023-01-08T12:57:18.596Z,9.10
2023-01-08T13:00:20.998Z,9.20
2023-01-08T13:03:24.983Z,9.10
2023-01-08T13:06:27.056Z,9.20
2023-01-08T13:09:29.187Z,9.20
2023-01-08T13:12:37.582Z,9.40
2023-01-08T13:15:39.123Z,9.30
2023-01-08T13:18:40.912Z,9.40
2023-01-08T13:21:43.147Z,9.60
2023-01-08T13:24:44.700Z,9.70
2023-01-08T13:27:46.717Z,9.90
2023-01-08T13:30:49.767Z,9.40
2023-01-08T13:33:54.271Z,9.40
2023-01-08T13:36:56.947Z,10.50
2023-01-08T13:39:58.422Z,9.60
2023-01-08T13:43:00.113Z,9.70
2023-01-08T13:46:01.627Z,9.90
2023-01-08T13:49:05.024Z,9.80
2023-01-08T13:52:06.631Z,9.60
2023-01-08T13:55:24.169Z,9.70
2023-01-08T13:58:53.084Z,10.00
2023-01-08T14:02:05.182Z,11.50
2023-01-08T14:09:05.720Z,10.50
2023-01-08T14:12:09.174Z,11.00
2023-01-08T14:19:27.897Z,10.00
2023-01-08T14:22:50.290Z,8.10
2023-01-08T14:38:29.083Z,9.00
2023-01-08T14:54:17.204Z,11.70
2023-01-08T15:05:15.091Z,10.40
2023-01-08T15:08:24.117Z,10.20
2023-01-08T15:11:26.776Z,10.30
2023-01-08T15:14:30.745Z,10.00
2023-01-08T15:17:32.310Z,11.10
2023-01-08T15:20:34.558Z,9.90
2023-01-08T15:23:42.722Z,10.10
2023-01-08T15:26:44.267Z,9.90
2023-01-08T15:29:50.229Z,9.70
2023-01-08T15:32:51.721Z,9.90
2023-01-08T15:35:53.247Z,9.80
2023-01-08T15:38:54.737Z,9.70
2023-01-08T15:42:15.067Z,9.50
2023-01-08T15:45:19.543Z,9.60
2023-01-08T15:48:21.032Z,9.70
2023-01-08T15:51:23.288Z,9.60
2023-01-08T15:54:25.717Z,9.50
2023-01-08T15:57:30.046Z,9.70
2023-01-08T16:00:32.614Z,9.50
2023-01-08T16:03:34.076Z,9.80
2023-01-08T16:06:36.320Z,9.50
2023-01-08T16:09:37.797Z,9.60
2023-01-08T16:12:39.284Z,11.40
2023-01-08T16:15:41.911Z,9.90
2023-01-08T16:18:43.916Z,9.60
2023-01-08T16:21:48.061Z,9.30
2023-01-08T16:24:49.518Z,10.10
2023-01-08T16:27:51.265Z,9.40
2023-01-08T16:30:52.898Z,11.30
2023-01-08T16:33:54.383Z,9.60
2023-01-08T16:36:55.828Z,9.80
2023-01-08T16:39:57.392Z,10.00
2023-01-08T16:43:00.932Z,9.60
2023-01-08T16:46:04.234Z,9.90
2023-01-08T16:49:07.510Z,10.90
2023-01-08T16:52:09.816Z,9.70
2023-01-08T16:55:11.339Z,10.30
2023-01-08T16:58:13.151Z,11.20
2023-01-08T17:01:14.769Z,11.50
2023-01-08T17:04:16.327Z,9.70
2023-01-08T17:07:17.854Z,9.60
2023-01-08T17:10:19.830Z,9.80
2023-01-08T17:13:21.345Z,9.90
2023-01-08T17:16:22.947Z,9.50
2023-01-08T17:19:24.487Z,9.50
2023-01-08T17:22:26.011Z,9.30
2023-01-08T17:25:27.472Z,9.30
2023-01-08T17:28:29.008Z,10.10
2023-01-08T17:31:30.609Z,9.60
2023-01-08T17:34:32.086Z,9.50
2023-01-08T17:37:34.118Z,11.50
2023-01-08T17:40:36.231Z,9.40
2023-01-08T17:43:38.623Z,9.60
2023-01-08T17:46:45.105Z,9.00
2023-01-08T17:49:50.277Z,10.50
2023-01-08T17:52:51.803Z,9.30
2023-01-08T17:55:53.577Z,9.10
2023-01-08T17:58:55.059Z,8.70
2023-01-08T18:01:57.682Z,9.00
2023-01-08T18:04:59.226Z,9.20
2023-01-08T18:08:00.745Z,9.00
2023-01-08T18:11:03.286Z,8.70
2023-01-08T18:14:04.779Z,9.00
2023-01-08T18:17:06.318Z,10.60
2023-01-08T18:20:13.644Z,8.90
2023-01-08T18:23:15.198Z,8.90
2023-01-08T18:26:17.435Z,9.10
2023-01-08T18:29:18.958Z,9.30
2023-01-08T18:32:26.074Z,8.90
2023-01-08T18:35:27.615Z,10.60
2023-01-08T18:38:29.273Z,8.60
2023-01-08T18:41:49.582Z,8.80
2023-01-08T18:44:54.440Z,8.80
2023-01-08T18:47:55.958Z,8.60
2023-01-08T18:50:57.517Z,8.70
2023-01-08T18:53:59.022Z,8.90
2023-01-08T18:57:00.528Z,8.60
2023-01-08T19:00:04.062Z,8.40
2023-01-08T19:03:08.765Z,8.60
2023-01-08T19:06:13.987Z,8.70
2023-01-08T19:09:20.297Z,8.60
2023-01-08T19:12:21.783Z,8.70
2023-01-08T19:15:23.327Z,8.60
2023-01-08T19:18:25.459Z,8.50
2023-01-08T19:21:27.006Z,8.70
2023-01-08T19:24:28.608Z,8.50
2023-01-08T19:27:30.196Z,9.20
2023-01-08T19:30:31.754Z,9.10
2023-01-08T19:33:33.580Z,9.20
2023-01-08T19:36:35.334Z,9.00
2023-01-08T19:39:38.582Z,9.10
2023-01-08T19:42:59.088Z,9.00
2023-01-08T19:46:04.206Z,8.80
2023-01-08T19:49:06.124Z,9.10
2023-01-08T19:52:07.579Z,9.30
2023-01-08T19:55:09.321Z,8.90
2023-01-08T19:58:11.090Z,9.10
2023-01-08T20:01:13.998Z,8.50
2023-01-08T20:04:16.778Z,9.10
2023-01-08T20:07:18.759Z,9.00
2023-01-08T20:10:20.254Z,9.20
2023-01-08T20:13:22.029Z,9.20
2023-01-08T20:16:24.405Z,8.80
2023-01-08T20:19:29.050Z,8.80
2023-01-08T20:22:31.056Z,10.50
2023-01-08T20:25:37.989Z,8.90
2023-01-08T20:28:40.652Z,9.10
2023-01-08T20:31:45.735Z,9.40
2023-01-08T20:34:47.295Z,11.10
2023-01-08T20:37:48.896Z,8.70
2023-01-08T20:40:53.293Z,9.10
2023-01-08T20:43:58.354Z,9.40
2023-01-08T20:47:00.959Z,9.70
2023-01-08T20:50:07.137Z,10.50
2023-01-08T20:53:14.258Z,10.00
2023-01-08T20:56:15.800Z,9.50
2023-01-08T20:59:17.390Z,9.50
2023-01-08T21:02:20.571Z,9.30
2023-01-08T21:05:22.344Z,12.00
2023-01-08T21:08:23.821Z,9.20
2023-01-08T21:11:25.486Z,9.80
2023-01-08T21:14:27.023Z,9.50
2023-01-08T21:17:28.504Z,10.90
2023-01-08T21:20:29.984Z,9.80
2023-01-08T21:23:32.145Z,9.60
2023-01-08T21:26:37.327Z,9.70
2023-01-08T21:29:38.851Z,9.30
2023-01-08T21:32:40.335Z,9.40
2023-01-08T21:35:41.829Z,10.10
2023-01-08T21:38:43.565Z,9.50
2023-01-08T21:42:03.884Z,9.80
2023-01-08T21:45:24.435Z,9.50
2023-01-08T21:48:25.935Z,9.80
2023-01-08T21:51:46.011Z,9.70
2023-01-08T21:54:47.629Z,9.70
2023-01-08T21:57:49.110Z,9.70
2023-01-08T22:00:50.645Z,10.00
2023-01-08T22:03:52.201Z,9.80
2023-01-08T22:06:53.777Z,10.00
2023-01-08T22:09:55.352Z,10.10
2023-01-08T22:12:56.887Z,9.90
2023-01-08T22:16:05.847Z,9.90
2023-01-08T22:19:07.373Z,9.90
2023-01-08T22:22:10.700Z,10.00
2023-01-08T22:25:13.032Z,9.80
2023-01-08T22:28:14.618Z,9.70
2023-01-08T22:31:16.475Z,11.70
2023-01-08T22:34:18.763Z,9.60
2023-01-08T22:37:21.645Z,9.90
2023-01-08T22:40:23.157Z,9.90
2023-01-08T22:43:24.751Z,10.00
2023-01-08T22:46:26.563Z,9.90
2023-01-08T22:49:28.103Z,9.60
2023-01-08T22:52:29.572Z,9.60
2023-01-08T22:55:31.030Z,9.70
2023-01-08T22:58:32.525Z,9.40
2023-01-08T23:01:34.042Z,9.50
2023-01-08T23:04:35.611Z,9.40
2023-01-08T23:07:37.133Z,9.60
2023-01-08T23:10:38.602Z,9.40
2023-01-08T23:13:40.140Z,9.30
2023-01-08T23:16:42.257Z,9.30
2023-01-08T23:19:43.853Z,9.30
2023-01-08T23:22:45.787Z,10.50
2023-01-08T23:25:47.382Z,9.00
2023-01-08T23:28:49.521Z,9.20
2023-01-08T23:31:51.063Z,9.40
2023-01-08T23:34:52.581Z,9.30
2023-01-08T23:37:54.027Z,9.10
2023-01-08T23:40:55.703Z,9.40
2023-01-08T23:43:59.741Z,9.20
2023-01-08T23:47:01.228Z,9.40
2023-01-08T23:50:02.736Z,9.40
2023-01-08T23:53:04.477Z,9.10
2023-01-08T23:56:06.287Z,8.80
2023-01-08T23:59:08.139Z,9.20
